Аэропорт: Брянск. Брянск

ICAO: UUBP

METAR:
2022-06-26 11:30:00
UUBP 261130Z 07003MPS 030V120 CAVOK 28/12 Q1021 R34/CLRD70 NOSIG RMK QFE748/0997
METAR:
2022-06-26 07:53:00
TAF UUBP 260753Z 2609/2618 04003G08MPS CAVOK